メインページ
METAR-TAF:

METAR-TAF

空港 :

ラスベガス, ネバダ州, アメリカ合衆国

マッカラン国際空港

緯度: 36-04-44N, 経度: 115-09-19W, 海抜: 663m

現時点の気象観測

当レポートは21分前の22:56(UTC)に作成
変向風 3kt
気温 32°C
湿度 8%
気圧 1014 hPa
視程: 16.1km
高度10000ftの雲はほとんどない

METAR: KLAS 272256Z VRB03KT 10SM FEW100 32/M06 A2993 RMK AO2 SLP111 T03171061

時間: 16:17 (23:17 UTC)

予報

当レポートは2時間24分前の20:53(UTC)に作成
予報は27日の 21時(UTC)から 28日の 18時(UTC)まで有効
の風 8kt
視程: 10km
高度10000ftの雲はほとんどない
28日の 0400時(UTC)から
西の風 8kt
視程: 10km
晴天
28日の 1500時(UTC)から
北東の風 8kt
視程: 10km
晴天

TAF: KLAS 272053Z 2721/2818 08008KT P6SM FEW100 FM280400 27008KT P6SM SKC FM281500 05008KT P6SM SKC

4,000以上の空港の気象観測と天気予報(METAR報とTAF報)

利用可能な観測所は地図上に黄色い丸と赤い丸で示す。

丸の上にカーソルを重ねると観測所名を参照できる。

次にクリックすると気象観測と天気予報を参照できる。

マップの切り替え:黒色「×」印の緑ボタンをクリックして拡大、「-」印の緑ボタンをクリックして縮小、緑色の三角印をクリックして隣りの地図に切り替え


METAR-TAF: